27°C  Θερμ.
15°C  Σημείο Δρόσου
48%  Υγρασία
Θερμοκρασία
13 KM/H
8 MPH
7 KTS
220°
Νότιο-Δυτικός

Ταχύτητα Ανέμου
Διάσπαρτα Νέφη
Ατμοσφαιρική πίεση 1017.92 (hPa) - 30.06 (in)
Ορατότητα 10.0 (km) - 6.2 (mi)

Τρέχουσες συνθήκες
LGTS
Location 15(km)
Metar :LGTS 191220Z 22007KT 9999 SCT035 27/15 Q1018 NOSIG
Sat 19th September 15:20 pm

Airport
  Metar Aviation API Data Provided by https://www.checkwx.com/ PHP scripts by weather34.com ©2020